createdAt,value
2019-03-18T00:00:27.705Z,99319.27
2019-03-18T00:02:56.383Z,99319.08
2019-03-18T00:05:25.017Z,99307.75
2019-03-18T00:07:53.644Z,99330.59
2019-03-18T00:10:22.318Z,99321.39
2019-03-18T00:12:52.164Z,99333.28
2019-03-18T00:15:21.174Z,99342.97
2019-03-18T00:17:49.799Z,99329.22
2019-03-18T00:20:18.484Z,99326.78
2019-03-18T00:22:47.048Z,99336.41
2019-03-18T00:25:16.193Z,99342.11
2019-03-18T00:27:44.875Z,99341.16
2019-03-18T00:30:15.477Z,99336.58
2019-03-18T00:32:44.034Z,99331.10
2019-03-18T00:35:12.673Z,99329.74
2019-03-18T00:37:41.242Z,99328.44
2019-03-18T00:40:14.389Z,99321.66
2019-03-18T00:42:43.041Z,99322.55
2019-03-18T00:45:15.062Z,99321.09
2019-03-18T00:47:42.083Z,99318.59
2019-03-18T00:50:15.115Z,99321.73
2019-03-18T00:52:43.995Z,99319.12
2019-03-18T00:55:12.900Z,99315.41
2019-03-18T00:57:41.504Z,99320.60
2019-03-18T01:00:15.106Z,99304.61
2019-03-18T01:02:43.670Z,99309.27
2019-03-18T01:05:12.309Z,99310.09
2019-03-18T01:07:41.008Z,99311.11
2019-03-18T01:10:14.403Z,99305.69
2019-03-18T01:12:43.036Z,99300.72
2019-03-18T01:15:12.109Z,99297.62
2019-03-18T01:17:40.749Z,99290.88
2019-03-18T01:20:11.423Z,99302.25
2019-03-18T01:22:40.046Z,99305.20
2019-03-18T01:25:10.046Z,99297.20
2019-03-18T01:27:38.745Z,99300.11
2019-03-18T01:30:12.822Z,99307.30
2019-03-18T01:32:41.505Z,99315.84
2019-03-18T01:35:10.929Z,99308.67
2019-03-18T01:37:39.599Z,99311.43
2019-03-18T01:40:12.238Z,99315.43
2019-03-18T01:42:40.917Z,99318.02
2019-03-18T01:45:10.549Z,99315.31
2019-03-18T01:47:39.220Z,99319.32
2019-03-18T01:50:12.823Z,99319.43
2019-03-18T01:52:41.488Z,99318.17
2019-03-18T01:55:10.189Z,99324.06
2019-03-18T01:57:38.744Z,99320.09
2019-03-18T02:00:10.622Z,99321.50
2019-03-18T02:02:39.285Z,99323.25
2019-03-18T02:05:09.513Z,99321.31
2019-03-18T02:07:38.071Z,99314.36
2019-03-18T02:10:15.257Z,99318.09
2019-03-18T02:12:43.907Z,99321.91
2019-03-18T02:15:15.799Z,99322.77
2019-03-18T02:17:44.442Z,99319.50
2019-03-18T02:20:15.321Z,99319.20
2019-03-18T02:22:43.993Z,99319.02
2019-03-18T02:25:12.628Z,99326.32
2019-03-18T02:27:41.272Z,99326.80
2019-03-18T02:30:19.659Z,99329.57
2019-03-18T02:32:48.350Z,99333.98
2019-03-18T02:35:16.980Z,99330.86
2019-03-18T02:37:45.570Z,99333.66
2019-03-18T02:40:14.439Z,99332.59
2019-03-18T02:42:43.062Z,99341.63
2019-03-18T02:45:12.144Z,99344.61
2019-03-18T02:47:40.827Z,99339.59
2019-03-18T02:50:10.561Z,99346.52
2019-03-18T02:52:39.289Z,99354.51
2019-03-18T02:55:09.157Z,99353.70
2019-03-18T02:57:37.781Z,99358.85
2019-03-18T03:00:14.516Z,99362.36
2019-03-18T03:02:43.126Z,99357.26
2019-03-18T03:05:13.103Z,99355.05
2019-03-18T03:07:41.630Z,99359.71
2019-03-18T03:10:12.510Z,99354.21
2019-03-18T03:12:41.184Z,99352.48
2019-03-18T03:15:11.924Z,99356.80
2019-03-18T03:17:40.557Z,99357.56
2019-03-18T03:20:10.592Z,99367.66
2019-03-18T03:22:39.194Z,99371.92
2019-03-18T03:25:09.034Z,99371.58
2019-03-18T03:27:37.676Z,99371.40
2019-03-18T03:30:11.606Z,99373.41
2019-03-18T03:32:40.121Z,99372.66
2019-03-18T03:35:08.759Z,99376.92
2019-03-18T03:37:37.349Z,99380.08
2019-03-18T03:40:07.980Z,99379.99
2019-03-18T03:42:36.598Z,99377.41
2019-03-18T03:45:07.266Z,99386.91
2019-03-18T03:47:35.862Z,99389.01
2019-03-18T03:50:05.792Z,99400.74
2019-03-18T03:52:34.420Z,99397.77
2019-03-18T03:55:03.101Z,99403.05
2019-03-18T03:57:31.775Z,99409.99
2019-03-18T04:00:00.719Z,99403.14
2019-03-18T04:02:29.407Z,99416.23
2019-03-18T04:04:58.095Z,99413.23
2019-03-18T04:07:26.660Z,99416.30
2019-03-18T04:10:01.085Z,99418.80
2019-03-18T04:12:29.765Z,99410.05
2019-03-18T04:14:58.328Z,99416.52
2019-03-18T04:17:26.928Z,99412.25
2019-03-18T04:19:55.553Z,99411.38
2019-03-18T04:22:24.157Z,99402.69
2019-03-18T04:24:52.686Z,99406.48
2019-03-18T04:27:24.540Z,99408.16
2019-03-18T04:29:51.705Z,99413.36
2019-03-18T04:32:20.242Z,99415.52
2019-03-18T04:34:48.794Z,99410.28
2019-03-18T04:37:17.327Z,99418.06
2019-03-18T04:39:45.890Z,99420.20
2019-03-18T04:42:14.490Z,99415.04
2019-03-18T04:44:43.102Z,99423.30
2019-03-18T04:47:14.575Z,99415.84
2019-03-18T04:49:41.967Z,99415.83
2019-03-18T04:52:10.606Z,99421.86
2019-03-18T04:54:39.235Z,99423.48
2019-03-18T04:57:07.844Z,99422.61
2019-03-18T04:59:36.447Z,99423.05
2019-03-18T05:02:05.122Z,99422.56
2019-03-18T05:04:33.700Z,99432.38
2019-03-18T05:07:02.288Z,99435.66
2019-03-18T05:09:30.922Z,99433.33
2019-03-18T05:11:59.526Z,99440.10
2019-03-18T05:14:28.096Z,99440.83
2019-03-18T05:16:56.738Z,99437.67
2019-03-18T05:19:25.227Z,99444.33
2019-03-18T05:21:53.864Z,99443.92
2019-03-18T05:24:22.507Z,99443.75
2019-03-18T05:26:51.077Z,99447.01
2019-03-18T05:29:19.728Z,99443.52
2019-03-18T05:31:48.227Z,99449.00
2019-03-18T05:34:16.777Z,99446.98
2019-03-18T05:36:45.352Z,99447.75
2019-03-18T05:39:13.847Z,99450.04
2019-03-18T05:41:42.530Z,99451.33
2019-03-18T05:44:11.137Z,99452.69
2019-03-18T05:46:39.743Z,99455.44
2019-03-18T05:49:08.277Z,99453.47
2019-03-18T05:51:37.066Z,99457.43
2019-03-18T05:54:05.626Z,99448.22
2019-03-18T05:56:34.327Z,99444.14
2019-03-18T05:59:02.815Z,99444.33
2019-03-18T06:01:31.667Z,99440.09
2019-03-18T06:04:00.738Z,99441.25
2019-03-18T06:06:29.528Z,99435.30
2019-03-18T06:08:58.247Z,99438.03
2019-03-18T06:11:26.822Z,99434.73
2019-03-18T06:13:56.700Z,99433.55
2019-03-18T06:16:28.535Z,99431.70
2019-03-18T06:19:00.082Z,99436.73
2019-03-18T06:21:27.695Z,99430.66
2019-03-18T06:23:56.386Z,99434.70
2019-03-18T06:26:25.102Z,99436.72
2019-03-18T06:28:53.804Z,99439.21
2019-03-18T06:31:22.473Z,99438.09
2019-03-18T06:33:51.178Z,99436.89
2019-03-18T06:36:20.175Z,99436.93
2019-03-18T06:38:48.849Z,99429.28
2019-03-18T06:41:17.613Z,99428.21
2019-03-18T06:43:50.978Z,99426.39
2019-03-18T06:46:20.033Z,99429.45
2019-03-18T06:48:52.629Z,99422.14
2019-03-18T06:51:21.489Z,99424.95
2019-03-18T06:53:50.292Z,99410.07
2019-03-18T06:56:19.383Z,99409.42
2019-03-18T06:58:48.330Z,99412.55
2019-03-18T07:01:17.542Z,99406.59
2019-03-18T07:03:46.133Z,99410.48
2019-03-18T07:06:15.513Z,99405.42
2019-03-18T07:08:44.175Z,99407.31
2019-03-18T07:11:12.663Z,99408.38
2019-03-18T07:13:41.290Z,99401.80
2019-03-18T07:16:09.785Z,99396.91
2019-03-18T07:18:38.440Z,99394.38
2019-03-18T07:21:07.771Z,99396.67
2019-03-18T07:23:37.499Z,99395.02
2019-03-18T07:26:06.155Z,99392.44
2019-03-18T07:28:34.796Z,99394.34
2019-03-18T07:31:03.351Z,99391.61
2019-03-18T07:33:32.326Z,99387.20
2019-03-18T07:36:00.949Z,99388.25
2019-03-18T07:38:29.498Z,99387.25
2019-03-18T07:40:59.239Z,99379.33
2019-03-18T07:43:29.226Z,99374.96
2019-03-18T07:45:57.819Z,99370.27
2019-03-18T07:48:31.264Z,99367.60
2019-03-18T07:50:57.508Z,99362.52
2019-03-18T07:53:26.068Z,99365.81
2019-03-18T07:55:54.953Z,99355.82
2019-03-18T07:58:23.642Z,99358.25
2019-03-18T08:00:52.415Z,99363.63
2019-03-18T08:03:22.092Z,99359.21
2019-03-18T08:05:50.797Z,99349.47
2019-03-18T08:08:19.567Z,99350.98
2019-03-18T08:10:48.092Z,99345.34
2019-03-18T08:13:16.769Z,99342.67
2019-03-18T08:15:45.504Z,99337.64
2019-03-18T08:18:17.729Z,99338.95
2019-03-18T08:20:46.387Z,99336.64
2019-03-18T08:23:14.879Z,99330.28
2019-03-18T08:25:43.413Z,99326.59
2019-03-18T08:28:14.619Z,99330.09
2019-03-18T08:30:43.283Z,99322.84
2019-03-18T08:33:11.770Z,99321.78
2019-03-18T08:35:40.303Z,99318.52
2019-03-18T08:38:08.791Z,99319.22
2019-03-18T08:40:37.405Z,99311.84
2019-03-18T08:43:05.966Z,99311.27
2019-03-18T08:45:34.561Z,99311.06
2019-03-18T08:48:03.105Z,99302.64
2019-03-18T08:50:31.705Z,99300.08
2019-03-18T08:53:00.369Z,99296.06
2019-03-18T08:55:29.183Z,99290.80
2019-03-18T08:57:57.891Z,99291.34
2019-03-18T09:00:26.579Z,99284.64
2019-03-18T09:02:56.470Z,99285.45
2019-03-18T09:05:29.330Z,99281.05
2019-03-18T09:07:58.047Z,99280.52
2019-03-18T09:10:26.776Z,99275.25
2019-03-18T09:12:55.576Z,99278.73
2019-03-18T09:15:24.223Z,99278.60
2019-03-18T09:17:52.999Z,99272.38
2019-03-18T09:20:21.723Z,99271.91
2019-03-18T09:22:50.386Z,99271.69
2019-03-18T09:25:18.988Z,99272.28
2019-03-18T09:27:47.666Z,99267.59
2019-03-18T09:30:20.928Z,99266.00
2019-03-18T09:32:49.576Z,99259.43
2019-03-18T09:35:18.265Z,99256.94
2019-03-18T09:37:46.974Z,99257.38
2019-03-18T09:40:17.632Z,99243.91
2019-03-18T09:42:50.099Z,99244.14
2019-03-18T09:45:19.368Z,99245.05
2019-03-18T09:47:48.024Z,99239.35
2019-03-18T09:50:16.957Z,99245.89
2019-03-18T09:52:45.600Z,99241.58
2019-03-18T09:55:14.226Z,99241.63
2019-03-18T09:57:45.934Z,99233.28
2019-03-18T10:00:15.929Z,99228.66
2019-03-18T10:02:44.645Z,99229.06
2019-03-18T10:05:15.957Z,99230.64
2019-03-18T10:07:45.114Z,99220.66
2019-03-18T10:10:14.451Z,99223.08
2019-03-18T10:12:43.123Z,99222.84
2019-03-18T10:15:16.689Z,99217.14
2019-03-18T10:17:48.323Z,99219.75
2019-03-18T10:20:16.941Z,99220.55
2019-03-18T10:22:45.625Z,99209.09
2019-03-18T10:25:14.957Z,99210.25
2019-03-18T10:27:43.575Z,99207.36
2019-03-18T10:30:15.917Z,99199.84
2019-03-18T10:32:44.536Z,99202.77
2019-03-18T10:35:13.302Z,99197.10
2019-03-18T10:37:41.936Z,99201.62
2019-03-18T10:40:16.768Z,99195.52
2019-03-18T10:42:45.395Z,99183.98
2019-03-18T10:45:14.662Z,99182.31
2019-03-18T10:47:43.530Z,99175.12
2019-03-18T10:50:15.858Z,99173.01
2019-03-18T10:52:44.474Z,99164.59
2019-03-18T10:55:13.206Z,99172.20
2019-03-18T10:57:41.831Z,99168.34
2019-03-18T11:00:15.911Z,99166.22
2019-03-18T11:02:45.198Z,99158.95
2019-03-18T11:05:14.675Z,99156.55
2019-03-18T11:07:43.427Z,99152.55
2019-03-18T11:10:13.620Z,99146.92
2019-03-18T11:12:42.403Z,99143.61
2019-03-18T11:15:21.062Z,99140.31
2019-03-18T11:17:49.718Z,99134.55
2019-03-18T11:20:18.438Z,99127.22
2019-03-18T11:22:47.169Z,99126.94
2019-03-18T11:25:17.867Z,99118.97
2019-03-18T11:27:46.485Z,99117.67
2019-03-18T11:30:16.531Z,99104.11
2019-03-18T11:32:45.155Z,99110.64
2019-03-18T11:35:13.787Z,99100.83
2019-03-18T11:37:42.448Z,99100.67
2019-03-18T11:40:14.142Z,99093.09
2019-03-18T11:42:42.786Z,99098.81
2019-03-18T11:45:13.063Z,99095.67
2019-03-18T11:47:41.702Z,99091.75
2019-03-18T11:50:14.404Z,99089.03
2019-03-18T11:52:45.421Z,99077.22
2019-03-18T11:55:16.046Z,99084.22
2019-03-18T11:57:44.727Z,99077.95
2019-03-18T12:00:16.457Z,99061.45
2019-03-18T12:02:48.221Z,99063.15
2019-03-18T12:05:25.575Z,99057.83
2019-03-18T12:07:56.021Z,99055.41
2019-03-18T12:10:25.871Z,99048.56
2019-03-18T12:12:55.036Z,99044.11
2019-03-18T12:15:27.684Z,99042.41
2019-03-18T12:17:59.340Z,99045.88
2019-03-18T12:20:28.108Z,99035.91
2019-03-18T12:22:59.509Z,99027.08
2019-03-18T12:25:27.999Z,99022.88
2019-03-18T12:27:56.612Z,99027.73
2019-03-18T12:30:26.575Z,99023.83
2019-03-18T12:32:55.173Z,99025.86
2019-03-18T12:35:23.800Z,99025.97
2019-03-18T12:37:52.506Z,99018.27
2019-03-18T12:40:22.551Z,99012.66
2019-03-18T12:42:51.299Z,99014.91
2019-03-18T12:45:22.978Z,99017.83
2019-03-18T12:47:51.563Z,98999.55
2019-03-18T12:50:38.556Z,99000.39
2019-03-18T12:52:51.822Z,98991.08
2019-03-18T12:55:20.563Z,98987.34
2019-03-18T12:57:49.385Z,98983.44
2019-03-18T13:00:22.773Z,98977.38
2019-03-18T13:02:51.436Z,98972.95
2019-03-18T13:05:20.108Z,98966.38
2019-03-18T13:07:48.658Z,98964.95
2019-03-18T13:10:21.267Z,98959.27
2019-03-18T13:12:48.791Z,98963.77
2019-03-18T13:15:19.048Z,98955.67
2019-03-18T13:17:47.856Z,98947.25
2019-03-18T13:20:18.074Z,98945.80
2019-03-18T13:22:46.828Z,98947.50
2019-03-18T13:25:15.580Z,98955.19
2019-03-18T13:27:44.244Z,98949.55
2019-03-18T13:30:23.948Z,98943.22
2019-03-18T13:32:52.621Z,98939.13
2019-03-18T13:35:21.240Z,98941.80
2019-03-18T13:37:49.982Z,98932.93
2019-03-18T13:40:19.054Z,98931.66
2019-03-18T13:42:47.721Z,98931.98
2019-03-18T13:45:21.045Z,98935.13
2019-03-18T13:47:49.943Z,98930.59
2019-03-18T13:50:25.097Z,98925.19
2019-03-18T13:52:59.769Z,98929.56
2019-03-18T13:55:31.843Z,98919.91
2019-03-18T13:58:00.065Z,98921.45
2019-03-18T14:00:31.097Z,98920.55
2019-03-18T14:03:00.051Z,98919.11
2019-03-18T14:05:28.759Z,98914.98
2019-03-18T14:08:00.747Z,98907.39
2019-03-18T14:10:27.709Z,98907.59
2019-03-18T14:12:56.427Z,98895.83
2019-03-18T14:15:25.661Z,98899.19
2019-03-18T14:17:54.309Z,98893.28
2019-03-18T14:20:27.016Z,98902.20
2019-03-18T14:22:55.634Z,98898.70
2019-03-18T14:25:24.267Z,98899.98
2019-03-18T14:27:52.754Z,98889.75
2019-03-18T14:30:24.292Z,98895.82
2019-03-18T14:32:52.970Z,98895.70
2019-03-18T14:35:22.088Z,98891.45
2019-03-18T14:37:50.918Z,98898.80
2019-03-18T14:40:23.870Z,98892.99
2019-03-18T14:42:52.350Z,98896.74
2019-03-18T14:45:21.895Z,98889.06
2019-03-18T14:47:50.520Z,98888.67
2019-03-18T14:50:19.651Z,98890.59
2019-03-18T14:52:48.282Z,98882.88
2019-03-18T14:55:18.784Z,98879.44
2019-03-18T14:57:47.511Z,98881.48
2019-03-18T15:00:29.372Z,98879.64
2019-03-18T15:03:00.864Z,98885.97
2019-03-18T15:05:29.492Z,98884.38
2019-03-18T15:07:58.066Z,98881.27
2019-03-18T15:10:32.722Z,98885.53
2019-03-18T15:13:01.212Z,98889.95
2019-03-18T15:15:29.882Z,98888.08
2019-03-18T15:17:58.498Z,98885.97
2019-03-18T15:20:28.071Z,98881.98
2019-03-18T15:22:56.742Z,98880.97
2019-03-18T15:25:26.874Z,98876.84
2019-03-18T15:27:55.609Z,98878.95
2019-03-18T15:30:24.168Z,98878.38
2019-03-18T15:32:52.834Z,98873.58
2019-03-18T15:35:21.394Z,98875.57
2019-03-18T15:37:50.081Z,98885.28
2019-03-18T15:40:23.610Z,98886.41
2019-03-18T15:42:52.237Z,98878.98
2019-03-18T15:45:23.971Z,98883.88
2019-03-18T15:47:52.612Z,98886.25
2019-03-18T15:50:25.510Z,98886.44
2019-03-18T15:52:54.199Z,98888.52
2019-03-18T15:55:24.276Z,98890.30
2019-03-18T15:57:53.289Z,98887.58
2019-03-18T16:00:27.787Z,98896.87
2019-03-18T16:02:56.394Z,98891.11
2019-03-18T16:05:24.953Z,98897.60
2019-03-18T16:07:53.514Z,98897.24
2019-03-18T16:10:22.279Z,98899.09
2019-03-18T16:12:50.909Z,98902.97
2019-03-18T16:15:19.537Z,98907.99
2019-03-18T16:17:48.223Z,98904.45
2019-03-18T16:20:22.166Z,98918.14
2019-03-18T16:22:50.735Z,98920.10
2019-03-18T16:25:19.439Z,98916.73
2019-03-18T16:27:48.163Z,98921.75
2019-03-18T16:30:18.743Z,98921.27
2019-03-18T16:32:47.368Z,98928.64
2019-03-18T16:35:16.828Z,98935.84
2019-03-18T16:37:45.661Z,98949.05
2019-03-18T16:40:21.232Z,98951.23
2019-03-18T16:42:49.735Z,98952.14
2019-03-18T16:45:21.736Z,98950.08
2019-03-18T16:47:50.387Z,98960.26
2019-03-18T16:50:21.923Z,98959.87
2019-03-18T16:52:50.485Z,98960.84
2019-03-18T16:55:19.072Z,98959.60
2019-03-18T16:57:47.699Z,98964.13
2019-03-18T17:00:27.039Z,98968.32
2019-03-18T17:02:55.683Z,98973.20
2019-03-18T17:05:24.391Z,98983.48
2019-03-18T17:07:54.319Z,98987.87
2019-03-18T17:10:26.070Z,98985.23
2019-03-18T17:12:54.668Z,98989.70
2019-03-18T17:15:23.633Z,98991.69
2019-03-18T17:17:52.114Z,98984.73
2019-03-18T17:20:20.677Z,98994.23
2019-03-18T17:22:50.334Z,98994.23
2019-03-18T17:25:30.759Z,98995.01
2019-03-18T17:27:59.330Z,99009.48
2019-03-18T17:30:27.903Z,99006.19
2019-03-18T17:32:56.547Z,99002.97
2019-03-18T17:35:25.281Z,99000.82
2019-03-18T17:37:53.803Z,99007.02
2019-03-18T17:40:22.430Z,99010.98
2019-03-18T17:42:51.041Z,99006.38
2019-03-18T17:45:19.862Z,99017.66
2019-03-18T17:47:48.530Z,99019.13
2019-03-18T17:50:23.025Z,99020.13
2019-03-18T17:53:01.710Z,99023.67
2019-03-18T17:55:21.976Z,99032.52
2019-03-18T17:57:50.596Z,99041.90
2019-03-18T18:00:24.011Z,99039.06
2019-03-18T18:02:53.021Z,99045.40
2019-03-18T18:05:24.365Z,99049.25
2019-03-18T18:07:53.040Z,99038.42
2019-03-18T18:10:21.604Z,99041.36
2019-03-18T18:12:50.161Z,99039.14
2019-03-18T18:15:18.784Z,99043.65
2019-03-18T18:17:47.347Z,99040.45
2019-03-18T18:20:16.319Z,99049.39
2019-03-18T18:22:44.955Z,99058.25
2019-03-18T18:25:14.453Z,99060.62
2019-03-18T18:27:42.956Z,99060.50
2019-03-18T18:30:13.441Z,99069.23
2019-03-18T18:32:42.061Z,99070.33
2019-03-18T18:35:11.596Z,99068.88
2019-03-18T18:37:43.107Z,99067.00
2019-03-18T18:40:22.931Z,99072.88
2019-03-18T18:42:51.568Z,99077.05
2019-03-18T18:45:21.382Z,99082.30
2019-03-18T18:47:50.126Z,99088.78
2019-03-18T18:50:18.879Z,99083.98
2019-03-18T18:52:47.481Z,99092.13
2019-03-18T18:55:16.126Z,99096.09
2019-03-18T18:57:44.799Z,99091.09
2019-03-18T19:00:16.128Z,99095.50
2019-03-18T19:02:44.797Z,99098.78
2019-03-18T19:05:14.577Z,99105.11
2019-03-18T19:07:43.687Z,99108.37
2019-03-18T19:10:14.401Z,99102.70
2019-03-18T19:12:43.079Z,99099.86
2019-03-18T19:15:26.867Z,99106.83
2019-03-18T19:17:55.555Z,99105.62
2019-03-18T19:20:24.188Z,99115.83
2019-03-18T19:22:52.895Z,99114.81
2019-03-18T19:25:21.594Z,99114.50
2019-03-18T19:27:50.205Z,99111.17
2019-03-18T19:30:23.339Z,99109.78
2019-03-18T19:32:52.120Z,99113.69
2019-03-18T19:35:20.772Z,99118.61
2019-03-18T19:37:51.964Z,99123.45
2019-03-18T19:40:22.551Z,99123.36
2019-03-18T19:42:51.177Z,99119.70
2019-03-18T19:45:19.819Z,99113.93
2019-03-18T19:47:48.461Z,99115.73
2019-03-18T19:50:24.921Z,99106.61
2019-03-18T19:52:53.548Z,99116.69
2019-03-18T19:55:22.196Z,99117.50
2019-03-18T19:57:50.885Z,99123.66
2019-03-18T20:00:29.667Z,99122.16
2019-03-18T20:02:58.306Z,99126.30
2019-03-18T20:05:26.949Z,99133.31
2019-03-18T20:07:55.559Z,99131.13
2019-03-18T20:10:24.202Z,99132.39
2019-03-18T20:12:52.828Z,99141.50
2019-03-18T20:15:21.468Z,99143.04
2019-03-18T20:17:50.400Z,99147.81
2019-03-18T20:20:23.235Z,99149.56
2019-03-18T20:22:51.889Z,99145.88
2019-03-18T20:25:20.542Z,99149.14
2019-03-18T20:27:49.175Z,99145.75
2019-03-18T20:30:20.768Z,99153.23
2019-03-18T20:32:49.405Z,99151.84
2019-03-18T20:35:19.241Z,99141.95
2019-03-18T20:37:47.920Z,99147.97
2019-03-18T20:40:17.293Z,99144.23
2019-03-18T20:42:45.972Z,99158.77
2019-03-18T20:45:19.521Z,99161.20
2019-03-18T20:47:48.212Z,99166.85
2019-03-18T20:50:18.809Z,99170.66
2019-03-18T20:52:47.434Z,99173.84
2019-03-18T20:55:17.218Z,99169.69
2019-03-18T20:57:45.885Z,99179.83
2019-03-18T21:00:21.280Z,99173.59
2019-03-18T21:02:49.977Z,99186.56
2019-03-18T21:05:18.603Z,99188.19
2019-03-18T21:07:47.280Z,99188.82
2019-03-18T21:10:19.196Z,99190.83
2019-03-18T21:12:47.795Z,99184.58
2019-03-18T21:15:17.194Z,99190.05
2019-03-18T21:17:45.834Z,99194.20
2019-03-18T21:20:22.820Z,99187.38
2019-03-18T21:22:51.451Z,99192.89
2019-03-18T21:25:20.134Z,99200.27
2019-03-18T21:27:48.762Z,99194.02
2019-03-18T21:30:18.808Z,99193.22
2019-03-18T21:32:47.449Z,99186.75
2019-03-18T21:35:16.069Z,99179.44
2019-03-18T21:37:44.747Z,99198.81
2019-03-18T21:40:14.770Z,99198.64
2019-03-18T21:42:43.337Z,99204.37
2019-03-18T21:45:14.520Z,99208.91
2019-03-18T21:47:43.098Z,99202.68
2019-03-18T21:50:13.422Z,99217.65
2019-03-18T21:52:42.065Z,99217.82
2019-03-18T21:55:10.702Z,99230.84
2019-03-18T21:57:39.380Z,99225.91
2019-03-18T22:00:16.417Z,99229.46
2019-03-18T22:02:45.059Z,99242.47
2019-03-18T22:05:13.757Z,99231.14
2019-03-18T22:07:42.361Z,99235.57
2019-03-18T22:10:12.893Z,99241.24
2019-03-18T22:12:41.567Z,99236.48
2019-03-18T22:15:11.911Z,99239.47
2019-03-18T22:17:40.574Z,99252.89
2019-03-18T22:20:12.011Z,99250.47
2019-03-18T22:22:40.686Z,99249.09
2019-03-18T22:25:10.900Z,99244.80
2019-03-18T22:27:39.537Z,99251.83
2019-03-18T22:30:10.970Z,99253.45
2019-03-18T22:32:39.653Z,99259.73
2019-03-18T22:35:12.277Z,99256.88
2019-03-18T22:37:40.905Z,99262.44
2019-03-18T22:40:12.494Z,99264.75
2019-03-18T22:42:41.129Z,99271.06
2019-03-18T22:45:11.678Z,99267.52
2019-03-18T22:47:40.372Z,99265.55
2019-03-18T22:50:13.129Z,99268.36
2019-03-18T22:52:41.774Z,99269.12
2019-03-18T22:55:14.442Z,99275.05
2019-03-18T22:57:43.113Z,99278.75
2019-03-18T23:00:27.778Z,99274.81
2019-03-18T23:02:56.450Z,99279.09
2019-03-18T23:05:25.138Z,99277.34
2019-03-18T23:07:53.694Z,99287.03
2019-03-18T23:10:22.376Z,99288.70
2019-03-18T23:12:51.002Z,99290.47
2019-03-18T23:15:19.668Z,99298.00
2019-03-18T23:17:48.310Z,99291.87
2019-03-18T23:20:17.046Z,99294.48
2019-03-18T23:22:45.664Z,99300.76
2019-03-18T23:25:14.332Z,99300.07
2019-03-18T23:27:42.891Z,99295.32
2019-03-18T23:30:13.340Z,99298.48
2019-03-18T23:32:42.009Z,99297.25
2019-03-18T23:35:10.897Z,99286.66
2019-03-18T23:37:39.530Z,99284.02
2019-03-18T23:40:10.818Z,99284.80
2019-03-18T23:42:39.448Z,99285.97
2019-03-18T23:45:09.088Z,99294.61
2019-03-18T23:47:37.694Z,99283.94
2019-03-18T23:50:11.447Z,99287.52
2019-03-18T23:52:40.019Z,99288.77
2019-03-18T23:55:18.346Z,99288.69
2019-03-18T23:57:40.015Z,99285.06
